sensor_id;sensor_type;location;lat;lon;timestamp;pressure;altitude;pressure_sealevel;temperature;humidity
8286;BME280;4181;43.416;24.598;2023-04-16T00:00:22;99538.97;;;14.76;100.00
8286;BME280;4181;43.416;24.598;2023-04-16T00:02:48;99532.22;;;14.68;100.00
8286;BME280;4181;43.416;24.598;2023-04-16T00:05:13;99544.47;;;14.76;100.00
8286;BME280;4181;43.416;24.598;2023-04-16T00:07:39;99550.50;;;14.78;100.00
8286;BME280;4181;43.416;24.598;2023-04-16T00:10:05;99564.59;;;14.43;100.00
8286;BME280;4181;43.416;24.598;2023-04-16T00:12:31;99557.88;;;14.30;100.00
8286;BME280;4181;43.416;24.598;2023-04-16T00:14:57;99556.09;;;14.11;100.00
8286;BME280;4181;43.416;24.598;2023-04-16T00:17:22;99543.00;;;14.02;100.00
8286;BME280;4181;43.416;24.598;2023-04-16T00:19:48;99547.91;;;14.06;100.00
8286;BME280;4181;43.416;24.598;2023-04-16T00:22:13;99543.66;;;14.23;100.00
8286;BME280;4181;43.416;24.598;2023-04-16T00:24:38;99529.34;;;14.55;100.00
8286;BME280;4181;43.416;24.598;2023-04-16T00:27:05;99542.50;;;14.81;100.00
8286;BME280;4181;43.416;24.598;2023-04-16T00:29:30;99543.25;;;14.87;100.00
8286;BME280;4181;43.416;24.598;2023-04-16T00:31:57;99548.31;;;14.51;100.00
8286;BME280;4181;43.416;24.598;2023-04-16T00:34:23;99551.06;;;14.23;100.00
8286;BME280;4181;43.416;24.598;2023-04-16T00:36:49;99558.34;;;14.09;100.00
8286;BME280;4181;43.416;24.598;2023-04-16T00:39:14;99564.13;;;14.02;100.00
8286;BME280;4181;43.416;24.598;2023-04-16T00:41:39;99555.72;;;13.93;100.00
8286;BME280;4181;43.416;24.598;2023-04-16T00:44:05;99545.47;;;14.04;100.00
8286;BME280;4181;43.416;24.598;2023-04-16T00:46:31;99555.94;;;13.68;100.00
8286;BME280;4181;43.416;24.598;2023-04-16T00:48:59;99559.75;;;13.67;100.00
8286;BME280;4181;43.416;24.598;2023-04-16T00:51:24;99551.44;;;13.77;100.00
8286;BME280;4181;43.416;24.598;2023-04-16T00:53:51;99547.75;;;13.63;100.00
8286;BME280;4181;43.416;24.598;2023-04-16T00:56:17;99540.38;;;13.54;100.00
8286;BME280;4181;43.416;24.598;2023-04-16T00:58:43;99544.31;;;13.43;100.00
8286;BME280;4181;43.416;24.598;2023-04-16T01:01:08;99544.69;;;13.26;100.00
8286;BME280;4181;43.416;24.598;2023-04-16T01:03:41;99538.69;;;13.19;100.00
8286;BME280;4181;43.416;24.598;2023-04-16T01:06:07;99535.28;;;13.37;100.00
8286;BME280;4181;43.416;24.598;2023-04-16T01:08:33;99523.38;;;13.57;100.00
8286;BME280;4181;43.416;24.598;2023-04-16T01:10:59;99525.78;;;13.68;100.00
8286;BME280;4181;43.416;24.598;2023-04-16T01:13:24;99530.34;;;13.78;100.00
8286;BME280;4181;43.416;24.598;2023-04-16T01:15:50;99525.69;;;13.78;100.00
8286;BME280;4181;43.416;24.598;2023-04-16T01:18:19;99520.22;;;13.78;100.00
8286;BME280;4181;43.416;24.598;2023-04-16T01:20:46;99513.59;;;13.79;100.00
8286;BME280;4181;43.416;24.598;2023-04-16T01:23:12;99518.22;;;13.84;100.00
8286;BME280;4181;43.416;24.598;2023-04-16T01:25:38;99515.69;;;13.92;100.00
8286;BME280;4181;43.416;24.598;2023-04-16T01:28:04;99518.00;;;13.75;100.00
8286;BME280;4181;43.416;24.598;2023-04-16T01:30:29;99509.38;;;13.92;100.00
8286;BME280;4181;43.416;24.598;2023-04-16T01:32:56;99520.59;;;13.95;100.00
8286;BME280;4181;43.416;24.598;2023-04-16T01:35:22;99509.09;;;13.93;100.00
8286;BME280;4181;43.416;24.598;2023-04-16T01:37:49;99511.03;;;13.93;100.00
8286;BME280;4181;43.416;24.598;2023-04-16T01:40:14;99509.84;;;13.99;100.00
8286;BME280;4181;43.416;24.598;2023-04-16T01:42:40;99512.25;;;14.06;100.00
8286;BME280;4181;43.416;24.598;2023-04-16T01:45:06;99514.97;;;14.11;100.00
8286;BME280;4181;43.416;24.598;2023-04-16T01:47:31;99504.94;;;14.25;100.00
8286;BME280;4181;43.416;24.598;2023-04-16T01:49:58;99507.25;;;13.84;100.00
8286;BME280;4181;43.416;24.598;2023-04-16T01:52:24;99502.63;;;13.79;100.00
8286;BME280;4181;43.416;24.598;2023-04-16T01:54:49;99504.19;;;13.90;100.00
8286;BME280;4181;43.416;24.598;2023-04-16T01:57:14;99504.06;;;14.00;100.00
8286;BME280;4181;43.416;24.598;2023-04-16T01:59:40;99509.53;;;13.72;100.00
8286;BME280;4181;43.416;24.598;2023-04-16T02:02:11;99507.59;;;13.77;100.00
8286;BME280;4181;43.416;24.598;2023-04-16T02:04:41;99497.81;;;13.66;100.00
8286;BME280;4181;43.416;24.598;2023-04-16T02:07:07;99503.47;;;13.46;100.00
8286;BME280;4181;43.416;24.598;2023-04-16T02:09:34;99508.66;;;13.48;100.00
8286;BME280;4181;43.416;24.598;2023-04-16T02:12:00;99504.31;;;13.42;100.00
8286;BME280;4181;43.416;24.598;2023-04-16T02:14:29;99504.50;;;13.50;100.00
8286;BME280;4181;43.416;24.598;2023-04-16T02:16:55;99496.78;;;13.57;100.00
8286;BME280;4181;43.416;24.598;2023-04-16T02:19:21;99495.41;;;13.60;100.00
8286;BME280;4181;43.416;24.598;2023-04-16T02:21:47;99482.59;;;13.50;100.00
8286;BME280;4181;43.416;24.598;2023-04-16T02:24:13;99480.66;;;13.51;100.00
8286;BME280;4181;43.416;24.598;2023-04-16T02:26:39;99488.78;;;13.66;100.00
8286;BME280;4181;43.416;24.598;2023-04-16T02:29:04;99472.53;;;13.41;100.00
8286;BME280;4181;43.416;24.598;2023-04-16T02:31:30;99486.56;;;13.34;100.00
8286;BME280;4181;43.416;24.598;2023-04-16T02:33:56;99482.16;;;13.38;100.00
8286;BME280;4181;43.416;24.598;2023-04-16T02:36:21;99471.00;;;13.25;100.00
8286;BME280;4181;43.416;24.598;2023-04-16T02:38:47;99479.78;;;13.27;100.00
8286;BME280;4181;43.416;24.598;2023-04-16T02:41:12;99479.44;;;13.33;100.00
8286;BME280;4181;43.416;24.598;2023-04-16T02:43:38;99471.13;;;13.48;100.00
8286;BME280;4181;43.416;24.598;2023-04-16T02:46:03;99473.47;;;13.26;100.00
8286;BME280;4181;43.416;24.598;2023-04-16T02:48:29;99466.41;;;13.15;100.00
8286;BME280;4181;43.416;24.598;2023-04-16T02:50:54;99475.06;;;13.32;100.00
8286;BME280;4181;43.416;24.598;2023-04-16T02:53:20;99475.59;;;13.34;100.00
8286;BME280;4181;43.416;24.598;2023-04-16T02:55:53;99469.38;;;13.57;100.00
8286;BME280;4181;43.416;24.598;2023-04-16T02:58:19;99461.50;;;13.51;100.00
8286;BME280;4181;43.416;24.598;2023-04-16T03:00:45;99463.56;;;13.64;100.00
8286;BME280;4181;43.416;24.598;2023-04-16T03:03:10;99463.41;;;13.50;100.00
8286;BME280;4181;43.416;24.598;2023-04-16T03:05:36;99484.59;;;13.40;100.00
8286;BME280;4181;43.416;24.598;2023-04-16T03:08:02;99469.41;;;13.52;100.00
8286;BME280;4181;43.416;24.598;2023-04-16T03:10:28;99466.94;;;13.56;100.00
8286;BME280;4181;43.416;24.598;2023-04-16T03:12:53;99466.75;;;13.76;100.00
8286;BME280;4181;43.416;24.598;2023-04-16T03:15:19;99468.56;;;13.85;100.00
8286;BME280;4181;43.416;24.598;2023-04-16T03:17:45;99467.50;;;13.53;100.00
8286;BME280;4181;43.416;24.598;2023-04-16T03:20:10;99472.25;;;13.42;100.00
8286;BME280;4181;43.416;24.598;2023-04-16T03:22:37;99470.44;;;13.61;100.00
8286;BME280;4181;43.416;24.598;2023-04-16T03:25:03;99477.94;;;13.51;100.00
8286;BME280;4181;43.416;24.598;2023-04-16T03:27:29;99467.31;;;13.44;100.00
8286;BME280;4181;43.416;24.598;2023-04-16T03:29:54;99461.78;;;13.49;100.00
8286;BME280;4181;43.416;24.598;2023-04-16T03:32:20;99476.81;;;13.52;100.00
8286;BME280;4181;43.416;24.598;2023-04-16T03:34:45;99473.84;;;13.48;100.00
8286;BME280;4181;43.416;24.598;2023-04-16T03:37:11;99463.66;;;13.54;100.00
8286;BME280;4181;43.416;24.598;2023-04-16T03:39:36;99471.88;;;13.54;100.00
8286;BME280;4181;43.416;24.598;2023-04-16T03:42:02;99471.63;;;13.50;100.00
8286;BME280;4181;43.416;24.598;2023-04-16T03:44:28;99465.59;;;13.53;100.00
8286;BME280;4181;43.416;24.598;2023-04-16T03:46:54;99478.13;;;13.59;100.00
8286;BME280;4181;43.416;24.598;2023-04-16T03:49:19;99480.34;;;13.57;100.00
8286;BME280;4181;43.416;24.598;2023-04-16T03:51:45;99480.59;;;13.61;100.00
8286;BME280;4181;43.416;24.598;2023-04-16T03:54:11;99475.84;;;13.71;100.00
8286;BME280;4181;43.416;24.598;2023-04-16T03:56:36;99472.56;;;13.69;100.00
8286;BME280;4181;43.416;24.598;2023-04-16T03:59:02;99475.47;;;13.49;100.00
8286;BME280;4181;43.416;24.598;2023-04-16T04:01:27;99472.75;;;13.49;100.00
8286;BME280;4181;43.416;24.598;2023-04-16T04:03:52;99472.91;;;13.63;100.00
8286;BME280;4181;43.416;24.598;2023-04-16T04:06:18;99462.38;;;13.75;100.00
8286;BME280;4181;43.416;24.598;2023-04-16T04:08:43;99458.47;;;13.81;100.00
8286;BME280;4181;43.416;24.598;2023-04-16T04:11:09;99460.53;;;13.65;100.00
8286;BME280;4181;43.416;24.598;2023-04-16T04:13:34;99462.97;;;13.67;100.00
8286;BME280;4181;43.416;24.598;2023-04-16T04:16:00;99455.63;;;13.62;100.00
8286;BME280;4181;43.416;24.598;2023-04-16T04:18:25;99458.28;;;13.72;100.00
8286;BME280;4181;43.416;24.598;2023-04-16T04:20:51;99449.47;;;13.75;100.00
8286;BME280;4181;43.416;24.598;2023-04-16T04:23:16;99461.41;;;13.89;100.00
8286;BME280;4181;43.416;24.598;2023-04-16T04:25:43;99460.25;;;13.95;100.00
8286;BME280;4181;43.416;24.598;2023-04-16T04:28:08;99463.88;;;13.91;100.00
8286;BME280;4181;43.416;24.598;2023-04-16T04:30:34;99465.72;;;13.95;100.00
8286;BME280;4181;43.416;24.598;2023-04-16T04:33:00;99462.25;;;13.90;100.00
8286;BME280;4181;43.416;24.598;2023-04-16T04:35:25;99475.09;;;13.94;100.00
8286;BME280;4181;43.416;24.598;2023-04-16T04:37:51;99472.41;;;13.56;100.00
8286;BME280;4181;43.416;24.598;2023-04-16T04:40:16;99458.25;;;13.77;100.00
8286;BME280;4181;43.416;24.598;2023-04-16T04:42:41;99464.44;;;13.88;100.00
8286;BME280;4181;43.416;24.598;2023-04-16T04:45:07;99455.69;;;13.86;100.00
8286;BME280;4181;43.416;24.598;2023-04-16T04:47:33;99463.19;;;14.04;100.00
8286;BME280;4181;43.416;24.598;2023-04-16T04:49:59;99461.81;;;14.07;100.00
8286;BME280;4181;43.416;24.598;2023-04-16T04:52:25;99459.78;;;14.12;100.00
8286;BME280;4181;43.416;24.598;2023-04-16T04:54:51;99451.72;;;14.26;100.00
8286;BME280;4181;43.416;24.598;2023-04-16T04:57:16;99460.97;;;14.35;100.00
8286;BME280;4181;43.416;24.598;2023-04-16T04:59:42;99484.44;;;14.46;100.00
8286;BME280;4181;43.416;24.598;2023-04-16T05:02:07;99480.28;;;14.72;100.00
8286;BME280;4181;43.416;24.598;2023-04-16T05:04:33;99486.13;;;14.65;100.00
8286;BME280;4181;43.416;24.598;2023-04-16T05:06:58;99482.66;;;14.78;100.00
8286;BME280;4181;43.416;24.598;2023-04-16T05:09:24;99479.09;;;14.78;100.00
8286;BME280;4181;43.416;24.598;2023-04-16T05:11:49;99471.19;;;14.95;100.00
8286;BME280;4181;43.416;24.598;2023-04-16T05:14:15;99478.16;;;15.06;100.00
8286;BME280;4181;43.416;24.598;2023-04-16T05:16:40;99476.25;;;15.25;100.00
8286;BME280;4181;43.416;24.598;2023-04-16T05:19:06;99476.84;;;15.41;100.00
8286;BME280;4181;43.416;24.598;2023-04-16T05:21:31;99465.81;;;15.59;100.00
8286;BME280;4181;43.416;24.598;2023-04-16T05:23:57;99468.84;;;15.76;100.00
8286;BME280;4181;43.416;24.598;2023-04-16T05:26:23;99461.75;;;16.02;100.00
8286;BME280;4181;43.416;24.598;2023-04-16T05:28:48;99451.41;;;16.26;100.00
8286;BME280;4181;43.416;24.598;2023-04-16T05:31:14;99456.94;;;16.54;100.00
8286;BME280;4181;43.416;24.598;2023-04-16T05:33:39;99443.22;;;16.89;100.00
8286;BME280;4181;43.416;24.598;2023-04-16T05:36:05;99445.97;;;17.25;100.00
8286;BME280;4181;43.416;24.598;2023-04-16T05:38:30;99453.22;;;17.21;100.00
8286;BME280;4181;43.416;24.598;2023-04-16T05:40:57;99471.56;;;17.03;100.00
8286;BME280;4181;43.416;24.598;2023-04-16T05:43:23;99474.66;;;16.75;100.00
8286;BME280;4181;43.416;24.598;2023-04-16T05:45:48;99485.50;;;16.58;100.00
8286;BME280;4181;43.416;24.598;2023-04-16T05:48:13;99486.88;;;16.41;100.00
8286;BME280;4181;43.416;24.598;2023-04-16T05:50:39;99482.00;;;16.38;100.00
8286;BME280;4181;43.416;24.598;2023-04-16T05:53:06;99466.19;;;16.44;100.00
8286;BME280;4181;43.416;24.598;2023-04-16T05:55:32;99469.47;;;16.60;100.00
8286;BME280;4181;43.416;24.598;2023-04-16T05:57:58;99461.81;;;16.84;100.00
8286;BME280;4181;43.416;24.598;2023-04-16T06:00:23;99456.63;;;17.18;100.00
8286;BME280;4181;43.416;24.598;2023-04-16T06:02:49;99463.13;;;17.35;100.00
8286;BME280;4181;43.416;24.598;2023-04-16T06:05:15;99460.56;;;17.61;100.00
8286;BME280;4181;43.416;24.598;2023-04-16T06:07:41;99454.34;;;17.78;100.00
8286;BME280;4181;43.416;24.598;2023-04-16T06:10:07;99450.03;;;17.85;100.00
8286;BME280;4181;43.416;24.598;2023-04-16T06:12:32;99447.84;;;17.74;100.00
8286;BME280;4181;43.416;24.598;2023-04-16T06:14:59;99459.09;;;17.77;100.00
8286;BME280;4181;43.416;24.598;2023-04-16T06:17:24;99448.56;;;17.79;100.00
8286;BME280;4181;43.416;24.598;2023-04-16T06:19:50;99455.63;;;17.72;100.00
8286;BME280;4181;43.416;24.598;2023-04-16T06:22:15;99446.78;;;17.83;100.00
8286;BME280;4181;43.416;24.598;2023-04-16T06:24:43;99447.69;;;18.01;100.00
8286;BME280;4181;43.416;24.598;2023-04-16T06:27:08;99453.34;;;17.96;100.00
8286;BME280;4181;43.416;24.598;2023-04-16T06:29:34;99448.75;;;17.91;100.00
8286;BME280;4181;43.416;24.598;2023-04-16T06:32:00;99450.41;;;17.92;100.00
8286;BME280;4181;43.416;24.598;2023-04-16T06:34:27;99454.53;;;18.03;100.00
8286;BME280;4181;43.416;24.598;2023-04-16T06:36:52;99450.34;;;18.14;100.00
8286;BME280;4181;43.416;24.598;2023-04-16T06:39:18;99452.56;;;18.34;100.00
8286;BME280;4181;43.416;24.598;2023-04-16T06:41:46;99458.22;;;18.60;100.00
8286;BME280;4181;43.416;24.598;2023-04-16T06:44:12;99450.66;;;18.82;100.00
8286;BME280;4181;43.416;24.598;2023-04-16T06:46:37;99449.38;;;19.06;100.00
8286;BME280;4181;43.416;24.598;2023-04-16T06:49:03;99439.66;;;19.34;100.00
8286;BME280;4181;43.416;24.598;2023-04-16T06:51:28;99435.25;;;19.58;100.00
8286;BME280;4181;43.416;24.598;2023-04-16T06:53:54;99428.38;;;19.73;100.00
8286;BME280;4181;43.416;24.598;2023-04-16T06:56:19;99422.19;;;19.84;100.00
8286;BME280;4181;43.416;24.598;2023-04-16T06:58:45;99437.00;;;19.88;100.00
8286;BME280;4181;43.416;24.598;2023-04-16T07:01:10;99431.97;;;19.82;100.00
8286;BME280;4181;43.416;24.598;2023-04-16T07:03:35;99434.09;;;19.76;100.00
8286;BME280;4181;43.416;24.598;2023-04-16T07:06:01;99448.44;;;19.61;100.00
8286;BME280;4181;43.416;24.598;2023-04-16T07:08:27;99460.50;;;19.57;100.00
8286;BME280;4181;43.416;24.598;2023-04-16T07:10:53;99465.06;;;19.44;100.00
8286;BME280;4181;43.416;24.598;2023-04-16T07:13:19;99457.72;;;19.40;100.00
8286;BME280;4181;43.416;24.598;2023-04-16T07:15:44;99478.41;;;19.34;100.00
8286;BME280;4181;43.416;24.598;2023-04-16T07:18:10;99478.84;;;19.27;100.00
8286;BME280;4181;43.416;24.598;2023-04-16T07:20:35;99472.00;;;19.25;100.00
8286;BME280;4181;43.416;24.598;2023-04-16T07:23:01;99478.03;;;19.27;100.00
8286;BME280;4181;43.416;24.598;2023-04-16T07:25:26;99475.47;;;19.30;100.00
8286;BME280;4181;43.416;24.598;2023-04-16T07:27:52;99466.28;;;19.21;100.00
8286;BME280;4181;43.416;24.598;2023-04-16T07:30:17;99463.69;;;19.25;100.00
8286;BME280;4181;43.416;24.598;2023-04-16T07:32:43;99475.25;;;19.27;100.00
8286;BME280;4181;43.416;24.598;2023-04-16T07:35:08;99468.78;;;19.31;100.00
8286;BME280;4181;43.416;24.598;2023-04-16T07:37:34;99473.63;;;19.09;100.00
8286;BME280;4181;43.416;24.598;2023-04-16T07:39:59;99462.91;;;19.16;100.00
8286;BME280;4181;43.416;24.598;2023-04-16T07:42:26;99460.31;;;19.36;100.00
8286;BME280;4181;43.416;24.598;2023-04-16T07:44:52;99450.25;;;19.66;100.00
8286;BME280;4181;43.416;24.598;2023-04-16T07:47:17;99436.16;;;19.88;100.00
8286;BME280;4181;43.416;24.598;2023-04-16T07:49:43;99432.59;;;19.96;100.00
8286;BME280;4181;43.416;24.598;2023-04-16T07:52:08;99439.41;;;20.16;100.00
8286;BME280;4181;43.416;24.598;2023-04-16T07:54:33;99440.84;;;20.22;100.00
8286;BME280;4181;43.416;24.598;2023-04-16T07:56:59;99432.28;;;20.44;100.00
8286;BME280;4181;43.416;24.598;2023-04-16T07:59:25;99442.47;;;20.23;100.00
8286;BME280;4181;43.416;24.598;2023-04-16T08:01:51;99448.25;;;20.38;100.00
8286;BME280;4181;43.416;24.598;2023-04-16T08:04:17;99441.03;;;20.54;100.00
8286;BME280;4181;43.416;24.598;2023-04-16T08:06:48;99447.81;;;20.65;100.00
8286;BME280;4181;43.416;24.598;2023-04-16T08:09:14;99450.06;;;20.72;100.00
8286;BME280;4181;43.416;24.598;2023-04-16T08:11:39;99451.25;;;20.91;100.00
8286;BME280;4181;43.416;24.598;2023-04-16T08:14:05;99448.06;;;21.10;100.00
8286;BME280;4181;43.416;24.598;2023-04-16T08:16:30;99434.97;;;21.40;100.00
8286;BME280;4181;43.416;24.598;2023-04-16T08:18:55;99445.69;;;21.62;100.00
8286;BME280;4181;43.416;24.598;2023-04-16T08:21:21;99421.16;;;21.84;100.00
8286;BME280;4181;43.416;24.598;2023-04-16T08:23:46;99434.31;;;22.20;100.00
8286;BME280;4181;43.416;24.598;2023-04-16T08:26:12;99429.97;;;22.43;100.00
8286;BME280;4181;43.416;24.598;2023-04-16T08:28:37;99432.53;;;22.60;100.00
8286;BME280;4181;43.416;24.598;2023-04-16T08:31:03;99416.91;;;22.55;100.00
8286;BME280;4181;43.416;24.598;2023-04-16T08:33:28;99427.19;;;22.67;100.00
8286;BME280;4181;43.416;24.598;2023-04-16T08:35:54;99433.66;;;22.47;100.00
8286;BME280;4181;43.416;24.598;2023-04-16T08:38:19;99426.53;;;22.58;100.00
8286;BME280;4181;43.416;24.598;2023-04-16T08:40:45;99421.06;;;22.86;100.00
8286;BME280;4181;43.416;24.598;2023-04-16T08:43:12;99414.88;;;23.16;100.00
8286;BME280;4181;43.416;24.598;2023-04-16T08:45:40;99412.69;;;23.49;100.00
8286;BME280;4181;43.416;24.598;2023-04-16T08:48:10;99404.72;;;23.63;100.00
8286;BME280;4181;43.416;24.598;2023-04-16T08:50:36;99406.31;;;23.76;100.00
8286;BME280;4181;43.416;24.598;2023-04-16T08:53:05;99412.25;;;23.75;100.00
8286;BME280;4181;43.416;24.598;2023-04-16T08:58:13;99409.28;;;23.28;100.00
8286;BME280;4181;43.416;24.598;2023-04-16T09:00:39;99418.50;;;22.93;100.00
8286;BME280;4181;43.416;24.598;2023-04-16T09:03:07;99420.69;;;22.39;100.00
8286;BME280;4181;43.416;24.598;2023-04-16T09:05:34;99428.22;;;22.26;100.00
8286;BME280;4181;43.416;24.598;2023-04-16T09:08:00;99423.88;;;22.17;100.00
8286;BME280;4181;43.416;24.598;2023-04-16T09:10:26;99429.09;;;22.06;100.00
8286;BME280;4181;43.416;24.598;2023-04-16T09:12:55;99414.97;;;21.99;100.00
8286;BME280;4181;43.416;24.598;2023-04-16T09:15:21;99409.50;;;21.91;100.00
8286;BME280;4181;43.416;24.598;2023-04-16T09:17:47;99400.66;;;21.77;100.00
8286;BME280;4181;43.416;24.598;2023-04-16T09:20:13;99412.28;;;21.70;100.00
8286;BME280;4181;43.416;24.598;2023-04-16T09:22:39;99430.13;;;21.49;100.00
8286;BME280;4181;43.416;24.598;2023-04-16T09:25:05;99434.88;;;21.27;100.00
8286;BME280;4181;43.416;24.598;2023-04-16T09:27:31;99436.16;;;21.09;100.00
8286;BME280;4181;43.416;24.598;2023-04-16T09:29:57;99438.84;;;20.97;100.00
8286;BME280;4181;43.416;24.598;2023-04-16T09:32:26;99447.34;;;20.63;100.00
8286;BME280;4181;43.416;24.598;2023-04-16T09:34:56;99448.97;;;20.64;100.00
8286;BME280;4181;43.416;24.598;2023-04-16T09:37:23;99451.50;;;20.78;100.00
8286;BME280;4181;43.416;24.598;2023-04-16T09:39:59;99450.59;;;20.94;100.00
8286;BME280;4181;43.416;24.598;2023-04-16T09:42:27;99457.34;;;21.14;100.00
8286;BME280;4181;43.416;24.598;2023-04-16T09:44:53;99460.47;;;21.12;100.00
8286;BME280;4181;43.416;24.598;2023-04-16T09:47:19;99447.13;;;21.26;100.00
8286;BME280;4181;43.416;24.598;2023-04-16T09:49:45;99452.41;;;21.40;100.00
8286;BME280;4181;43.416;24.598;2023-04-16T09:54:52;99442.13;;;21.73;100.00
8286;BME280;4181;43.416;24.598;2023-04-16T09:57:22;99431.44;;;22.16;100.00
8286;BME280;4181;43.416;24.598;2023-04-16T09:59:52;99426.38;;;22.42;100.00
8286;BME280;4181;43.416;24.598;2023-04-16T10:02:17;99410.28;;;22.84;100.00
8286;BME280;4181;43.416;24.598;2023-04-16T10:04:52;99414.16;;;23.07;100.00
8286;BME280;4181;43.416;24.598;2023-04-16T10:07:18;99403.38;;;23.18;100.00
8286;BME280;4181;43.416;24.598;2023-04-16T10:09:45;99408.44;;;22.64;100.00
8286;BME280;4181;43.416;24.598;2023-04-16T10:12:13;99416.97;;;22.47;100.00
8286;BME280;4181;43.416;24.598;2023-04-16T10:14:39;99411.22;;;22.64;100.00
8286;BME280;4181;43.416;24.598;2023-04-16T10:17:06;99412.81;;;22.77;100.00
8286;BME280;4181;43.416;24.598;2023-04-16T10:19:32;99409.69;;;22.91;100.00
8286;BME280;4181;43.416;24.598;2023-04-16T10:21:58;99408.91;;;22.66;100.00
8286;BME280;4181;43.416;24.598;2023-04-16T10:24:31;99410.84;;;22.90;100.00
8286;BME280;4181;43.416;24.598;2023-04-16T10:26:57;99410.63;;;22.83;100.00
8286;BME280;4181;43.416;24.598;2023-04-16T10:29:26;99413.72;;;22.45;100.00
8286;BME280;4181;43.416;24.598;2023-04-16T10:31:53;99399.03;;;22.44;100.00
8286;BME280;4181;43.416;24.598;2023-04-16T10:34:20;99407.25;;;22.41;100.00
8286;BME280;4181;43.416;24.598;2023-04-16T10:36:50;99408.38;;;22.40;100.00
8286;BME280;4181;43.416;24.598;2023-04-16T10:39:27;99404.47;;;22.29;100.00
8286;BME280;4181;43.416;24.598;2023-04-16T10:42:10;99403.53;;;22.13;100.00
8286;BME280;4181;43.416;24.598;2023-04-16T10:44:36;99405.72;;;22.19;100.00
8286;BME280;4181;43.416;24.598;2023-04-16T10:47:02;99412.31;;;22.03;100.00
8286;BME280;4181;43.416;24.598;2023-04-16T10:49:34;99406.97;;;22.10;100.00
8286;BME280;4181;43.416;24.598;2023-04-16T10:52:06;99403.75;;;22.20;100.00
8286;BME280;4181;43.416;24.598;2023-04-16T10:54:34;99393.56;;;22.24;100.00
8286;BME280;4181;43.416;24.598;2023-04-16T10:57:05;99399.34;;;22.19;100.00
8286;BME280;4181;43.416;24.598;2023-04-16T10:59:35;99386.38;;;22.11;100.00
8286;BME280;4181;43.416;24.598;2023-04-16T11:02:12;99388.47;;;22.26;100.00
8286;BME280;4181;43.416;24.598;2023-04-16T11:04:41;99396.97;;;22.41;100.00
8286;BME280;4181;43.416;24.598;2023-04-16T11:17:45;99377.38;;;23.26;100.00
8286;BME280;4181;43.416;24.598;2023-04-16T11:20:21;99368.09;;;23.34;100.00
8286;BME280;4181;43.416;24.598;2023-04-16T11:22:48;99360.34;;;23.55;100.00
8286;BME280;4181;43.416;24.598;2023-04-16T11:25:28;99345.91;;;23.80;100.00
8286;BME280;4181;43.416;24.598;2023-04-16T11:27:54;99347.72;;;23.73;100.00
8286;BME280;4181;43.416;24.598;2023-04-16T11:30:34;99339.25;;;23.85;100.00
8286;BME280;4181;43.416;24.598;2023-04-16T11:33:18;99331.41;;;24.03;100.00
8286;BME280;4181;43.416;24.598;2023-04-16T11:35:43;99324.66;;;24.35;100.00
8286;BME280;4181;43.416;24.598;2023-04-16T11:38:10;99313.91;;;24.52;100.00
8286;BME280;4181;43.416;24.598;2023-04-16T11:40:35;99314.59;;;24.65;100.00
8286;BME280;4181;43.416;24.598;2023-04-16T11:43:12;99314.66;;;24.84;100.00
8286;BME280;4181;43.416;24.598;2023-04-16T11:45:38;99315.19;;;24.89;100.00
8286;BME280;4181;43.416;24.598;2023-04-16T11:48:03;99303.72;;;24.60;100.00
8286;BME280;4181;43.416;24.598;2023-04-16T11:50:29;99301.38;;;24.62;100.00
8286;BME280;4181;43.416;24.598;2023-04-16T11:52:56;99298.03;;;24.72;100.00
8286;BME280;4181;43.416;24.598;2023-04-16T11:55:27;99294.25;;;24.99;100.00
8286;BME280;4181;43.416;24.598;2023-04-16T11:57:52;99278.75;;;25.21;100.00
8286;BME280;4181;43.416;24.598;2023-04-16T12:00:18;99278.38;;;25.41;100.00
8286;BME280;4181;43.416;24.598;2023-04-16T12:02:47;99280.13;;;25.49;100.00
8286;BME280;4181;43.416;24.598;2023-04-16T12:05:30;99281.03;;;25.53;100.00
8286;BME280;4181;43.416;24.598;2023-04-16T12:07:57;99271.00;;;25.52;100.00
8286;BME280;4181;43.416;24.598;2023-04-16T12:10:23;99271.13;;;25.37;100.00
8286;BME280;4181;43.416;24.598;2023-04-16T12:12:49;99273.09;;;24.98;100.00
8286;BME280;4181;43.416;24.598;2023-04-16T12:15:15;99264.88;;;25.05;100.00
8286;BME280;4181;43.416;24.598;2023-04-16T12:17:41;99265.97;;;25.20;100.00
8286;BME280;4181;43.416;24.598;2023-04-16T12:20:10;99260.59;;;25.30;100.00
8286;BME280;4181;43.416;24.598;2023-04-16T12:22:38;99246.78;;;25.37;100.00
8286;BME280;4181;43.416;24.598;2023-04-16T12:25:14;99241.22;;;25.60;100.00
8286;BME280;4181;43.416;24.598;2023-04-16T12:27:49;99241.44;;;25.74;100.00
8286;BME280;4181;43.416;24.598;2023-04-16T12:30:20;99223.34;;;25.87;100.00
8286;BME280;4181;43.416;24.598;2023-04-16T12:32:48;99225.44;;;25.93;100.00
8286;BME280;4181;43.416;24.598;2023-04-16T12:35:31;99220.03;;;26.04;100.00
8286;BME280;4181;43.416;24.598;2023-04-16T12:37:57;99214.81;;;26.02;100.00
8286;BME280;4181;43.416;24.598;2023-04-16T12:40:23;99206.88;;;26.04;100.00
8286;BME280;4181;43.416;24.598;2023-04-16T12:42:48;99206.03;;;26.04;100.00
8286;BME280;4181;43.416;24.598;2023-04-16T12:45:14;99203.63;;;26.02;100.00
8286;BME280;4181;43.416;24.598;2023-04-16T12:47:39;99205.41;;;26.14;100.00
8286;BME280;4181;43.416;24.598;2023-04-16T12:50:05;99202.19;;;26.12;100.00
8286;BME280;4181;43.416;24.598;2023-04-16T12:52:31;99196.63;;;26.15;100.00
8286;BME280;4181;43.416;24.598;2023-04-16T12:54:56;99198.16;;;26.09;100.00
8286;BME280;4181;43.416;24.598;2023-04-16T12:57:22;99202.22;;;26.15;100.00
8286;BME280;4181;43.416;24.598;2023-04-16T12:59:54;99197.09;;;25.95;100.00
8286;BME280;4181;43.416;24.598;2023-04-16T13:02:20;99199.09;;;25.94;100.00
8286;BME280;4181;43.416;24.598;2023-04-16T13:04:45;99196.94;;;25.84;100.00
8286;BME280;4181;43.416;24.598;2023-04-16T13:07:11;99196.72;;;25.70;100.00
8286;BME280;4181;43.416;24.598;2023-04-16T13:09:36;99188.34;;;25.70;100.00
8286;BME280;4181;43.416;24.598;2023-04-16T13:12:02;99194.50;;;25.83;100.00